Decoded Metar for LFJR (ANGERS in FRANCE) (IATA:N/A) | Meteo·Mobile Aviation Weather
aviador You're here:

LFJR Decoded Metar

ANGERS in FRANCE
Report Time2019-07-16 10:30:00
UTC Time2019-07-16 11:02:00
Flight Rules vfr VFR
WindVRB at 02 kt
Visibility9999 m
Phenomena:N/A
Clouds:N/A
Expected CloudBase > 5,200 ft AGL from Temp-Dew spread
CeilingNone
Temp25°C (ISA +10)
Dew Point12°C (44% RH)
AAT24.9°C
QNH1018 hPa
Density Alt1,421 ft
Elevation197 ft
Report Wrong Elevation
Raw Report
METAR LFJR 161030Z AUTO VRB02KT CAVOK 25/12 Q1018=

Extra information for LFJR:More info

Metar Taf Metar & Taf Last 4 Metars F.Rules Stats Wind Profile Meteogram Temp Stats Airport Information Weather charts Add Link Nearby VenuesMetar ALERT Operation Metar Decoded Social comments